Time;durP1;ratioP1;P1;durP2;ratioP2;P2;SDS_P1;SDS_P2;PMS_P1;PMS_P2;Temp;Humidity;BMP_temperature;BMP_pressure;BME280_temperature;BME280_humidity;BME280_pressure;Samples;Min_cycle;Max_cycle;Signal;HPM_P1;HPM_P2
2023/01/13 00:01:11;;;;;;;11.70;3.60;;;;;;;-2.13;64.35;101325.71;107297;1246;60965;-64
2023/01/13 00:03:41;;;;;;;10.60;3.00;;;;;;;-2.05;64.30;101332.14;107281;1247;60182;-62
2023/01/13 00:06:08;;;;;;;13.60;4.20;;;;;;;-1.93;64.22;101333.70;107036;1250;74318;-62
2023/01/13 00:08:36;;;;;;;14.20;4.20;;;;;;;-1.85;64.05;101333.09;107216;1247;71351;-64
2023/01/13 00:11:03;;;;;;;12.00;4.20;;;;;;;-1.76;64.24;101331.09;107294;1249;72835;-63
2023/01/13 00:13:34;;;;;;;10.90;4.60;;;;;;;-1.65;64.18;101336.61;107066;1246;62021;-61
2023/01/13 00:16:03;;;;;;;12.10;5.20;;;;;;;-1.53;64.28;101337.13;107297;1246;61079;-61
2023/01/13 00:18:32;;;;;;;15.50;4.30;;;;;;;-1.46;64.08;101338.40;107270;1247;72962;-62
2023/01/13 00:21:00;;;;;;;17.40;6.20;;;;;;;-1.42;64.18;101336.10;107183;1248;70984;-62
2023/01/13 00:23:29;;;;;;;13.90;4.50;;;;;;;-1.42;64.04;101336.10;107664;1242;72640;-63
2023/01/13 00:25:59;;;;;;;14.10;4.60;;;;;;;-1.44;64.03;101334.56;107726;1241;60268;-63
2023/01/13 00:28:26;;;;;;;15.60;5.80;;;;;;;-1.45;64.08;101329.77;107904;1239;60063;-64
2023/01/13 00:30:57;;;;;;;18.60;5.90;;;;;;;-1.47;63.99;101333.42;107826;1241;73650;-63
2023/01/13 00:33:24;;;;;;;15.80;6.50;;;;;;;-1.52;63.99;101328.85;107922;1239;71214;-64
2023/01/13 00:35:56;;;;;;;12.90;5.80;;;;;;;-1.57;63.93;101333.92;107775;1240;73751;-66
2023/01/13 00:38:23;;;;;;;13.40;6.00;;;;;;;-1.63;64.08;101330.38;107777;1241;60192;-63
2023/01/13 00:41:06;;;;;;;25.00;6.40;;;;;;;-1.67;64.06;101326.49;107800;1240;60985;-63
2023/01/13 00:43:35;;;;;;;14.20;5.10;;;;;;;-1.72;64.23;101323.96;107825;1241;73817;-62
2023/01/13 00:46:04;;;;;;;15.80;7.20;;;;;;;-1.76;64.42;101326.09;107866;1243;71097;-63
2023/01/13 02:01:09;;;;;;;14.00;4.80;;;;;;;-1.09;62.74;101276.52;106491;1261;64589;-62
2023/01/13 02:03:38;;;;;;;14.70;4.30;;;;;;;-1.21;62.93;101274.48;107298;1248;60318;-62
2023/01/13 02:06:05;;;;;;;16.50;6.20;;;;;;;-1.27;63.25;101274.25;107521;1247;61003;-63
2023/01/13 02:08:32;;;;;;;14.60;5.70;;;;;;;-1.34;63.43;101275.90;107494;1244;73877;-63
2023/01/13 02:10:59;;;;;;;14.10;5.10;;;;;;;-1.40;63.54;101271.35;107467;1241;70966;-64
2023/01/13 02:13:29;;;;;;;14.60;5.60;;;;;;;-1.45;63.65;101267.65;107445;1244;72268;-63
2023/01/13 02:16:02;;;;;;;12.50;5.80;;;;;;;-1.52;63.83;101266.04;107666;1240;61081;-62
2023/01/13 02:18:59;;;;;;;18.30;5.20;;;;;;;-1.56;64.02;101262.66;107599;1244;59918;-64
2023/01/13 02:21:57;;;;;;;35.90;9.90;;;;;;;-1.60;64.10;101263.93;107407;1244;65429;-64
2023/01/13 02:24:54;;;;;;;27.20;6.20;;;;;;;-1.64;64.32;101263.65;107754;1240;62325;-62
2023/01/13 02:27:33;;;;;;;12.10;4.40;;;;;;;-1.68;64.44;101266.11;107669;1241;64912;-65
2023/01/13 02:33:49;;;;;;;9.40;4.30;;;;;;;-1.55;64.19;101265.75;107480;1240;59757;-62
2023/01/13 02:36:44;;;;;;;11.70;4.90;;;;;;;-1.46;64.18;101266.29;107819;1244;65241;-62
2023/01/13 02:39:28;;;;;;;9.10;3.60;;;;;;;-1.36;64.27;101262.69;107587;1241;62290;-63
2023/01/13 02:44:59;;;;;;;15.70;5.20;;;;;;;-1.16;64.19;101262.52;107429;1241;60222;-63
2023/01/13 02:47:27;;;;;;;16.80;6.10;;;;;;;-1.14;64.12;101260.41;107510;1240;60021;-64
2023/01/13 02:50:06;;;;;;;15.20;5.70;;;;;;;-1.14;64.08;101263.51;107544;1242;73856;-63
2023/01/13 02:52:49;;;;;;;17.40;5.60;;;;;;;-1.17;63.98;101263.73;107529;1244;71025;-62
2023/01/13 02:55:31;;;;;;;11.60;6.70;;;;;;;-1.21;63.89;101264.17;107633;1244;73302;-64
2023/01/13 02:57:58;;;;;;;17.60;6.90;;;;;;;-1.27;64.02;101262.89;107381;1240;60250;-62
2023/01/13 03:00:25;;;;;;;15.40;6.80;;;;;;;-1.30;63.98;101262.58;107530;1240;61006;-62
2023/01/13 03:02:52;;;;;;;18.90;7.50;;;;;;;-1.36;63.92;101264.06;107701;1243;72852;-63
2023/01/13 03:05:20;;;;;;;19.90;6.10;;;;;;;-1.41;64.09;101261.04;107511;1240;71571;-61
2023/01/13 03:08:14;;;;;;;17.60;6.30;;;;;;;-1.45;64.20;101254.58;107579;1241;73192;-62
2023/01/13 03:10:59;;;;;;;24.60;8.20;;;;;;;-1.51;64.19;101254.84;107471;1241;59640;-62
2023/01/13 03:13:45;;;;;;;18.40;6.20;;;;;;;-1.57;64.35;101257.00;107646;1240;60335;-62
2023/01/13 03:16:37;;;;;;;23.30;6.30;;;;;;;-1.61;64.54;101257.23;107588;1244;73644;-62
2023/01/13 03:19:20;;;;;;;12.80;6.50;;;;;;;-1.64;64.64;101252.81;107589;1244;71299;-63
2023/01/13 03:21:55;;;;;;;19.60;7.20;;;;;;;-1.66;64.87;101252.67;107515;1241;72528;-62
2023/01/13 03:24:38;;;;;;;14.50;6.10;;;;;;;-1.69;64.78;101251.34;107436;1245;59946;-63
2023/01/13 03:27:15;;;;;;;24.30;6.60;;;;;;;-1.70;64.96;101251.17;107687;1240;60173;-63
2023/01/13 03:29:45;;;;;;;18.70;6.10;;;;;;;-1.63;64.92;101247.81;107966;1244;73752;-63
2023/01/13 03:32:24;;;;;;;12.70;4.20;;;;;;;-1.52;64.82;101250.89;108283;1241;71079;-63
2023/01/13 03:34:54;;;;;;;11.30;5.00;;;;;;;-1.41;64.63;101246.59;107637;1246;73779;-64
2023/01/13 03:37:29;;;;;;;12.20;4.70;;;;;;;-1.31;64.73;101249.17;107595;1244;61379;-65
2023/01/13 03:39:59;;;;;;;13.00;5.40;;;;;;;-1.20;64.74;101246.75;107617;1240;61064;-63
2023/01/13 03:42:27;;;;;;;13.90;5.70;;;;;;;-1.09;64.64;101246.21;107683;1245;73703;-63
2023/01/13 03:45:07;;;;;;;14.90;5.90;;;;;;;-1.03;64.53;101247.65;107474;1240;71110;-62
2023/01/13 03:47:43;;;;;;;10.40;4.80;;;;;;;-1.01;64.39;101247.45;107491;1240;73621;-62
2023/01/13 03:50:19;;;;;;;19.90;6.70;;;;;;;-1.02;64.28;101251.09;107516;1244;59598;-62
2023/01/13 03:53:09;;;;;;;10.80;5.30;;;;;;;-1.04;64.18;101256.11;107508;1241;61240;-63
2023/01/13 03:55:39;;;;;;;15.10;4.70;;;;;;;-1.07;64.14;101255.65;107637;1244;65165;-63
2023/01/13 03:58:13;;;;;;;17.80;6.90;;;;;;;-1.13;64.00;101255.92;107529;1240;71140;-63
2023/01/13 04:02:12;;;;;;;16.60;6.40;;;;;;;-1.36;64.54;101247.71;101933;1305;602766;-63
2023/01/13 04:05:01;;;;;;;19.30;6.80;;;;;;;-1.27;64.13;101250.30;104256;1274;61946;-60
2023/01/13 04:07:35;;;;;;;14.30;6.60;;;;;;;-1.32;64.19;101250.90;104395;1267;59244;-63
2023/01/13 04:10:04;;;;;;;17.90;7.40;;;;;;;-1.39;64.21;101253.10;104516;1273;74299;-62
2023/01/13 04:15:29;;;;;;;18.00;6.10;;;;;;;-1.50;64.45;101249.48;104295;1273;183744;-62
2023/01/13 04:18:14;;;;;;;17.40;5.50;;;;;;;-1.56;64.57;101244.27;104644;1267;62467;-62
2023/01/13 04:20:42;;;;;;;19.90;6.50;;;;;;;-1.63;64.70;101244.54;104700;1269;61274;-63
2023/01/13 04:23:12;;;;;;;13.30;5.70;;;;;;;-1.67;64.89;101248.39;104991;1263;74743;-63
2023/01/13 04:25:40;;;;;;;10.60;4.50;;;;;;;-1.63;64.94;101243.84;105064;1263;72771;-62
2023/01/13 04:28:08;;;;;;;14.60;5.00;;;;;;;-1.55;64.75;101245.77;105095;1263;73753;-63
2023/01/13 04:30:35;;;;;;;13.80;6.70;;;;;;;-1.48;64.60;101240.84;105074;1259;63025;-62
2023/01/13 04:33:04;;;;;;;13.10;4.50;;;;;;;-1.41;64.58;101235.91;105003;1263;61548;-63
2023/01/13 04:35:31;;;;;;;12.30;4.80;;;;;;;-1.35;64.59;101235.81;104932;1258;75461;-62
2023/01/13 04:38:25;;;;;;;18.80;5.60;;;;;;;-1.29;64.74;101235.21;105127;1264;71509;-61
2023/01/13 04:40:52;;;;;;;11.60;4.70;;;;;;;-1.27;64.79;101235.52;104987;1262;65930;-62
2023/01/13 04:43:19;;;;;;;11.60;5.20;;;;;;;-1.24;64.74;101242.52;105074;1263;60650;-63
2023/01/13 04:45:46;;;;;;;9.90;5.70;;;;;;;-1.24;64.56;101244.06;105146;1263;62471;-62
2023/01/13 04:48:13;;;;;;;12.10;5.90;;;;;;;-1.28;64.59;101247.57;104899;1257;73903;-63
2023/01/13 04:50:40;;;;;;;17.80;6.40;;;;;;;-1.32;64.56;101252.13;105063;1263;72461;-63
2023/01/13 04:53:07;;;;;;;14.90;5.00;;;;;;;-1.37;64.48;101255.30;105057;1258;75325;-63
2023/01/13 04:55:34;;;;;;;12.40;5.50;;;;;;;-1.42;64.56;101252.30;104956;1259;61676;-64
2023/01/13 04:58:03;;;;;;;13.10;5.80;;;;;;;-1.47;64.66;101249.96;104993;1263;61468;-62
2023/01/13 05:00:30;;;;;;;11.70;3.60;;;;;;;-1.54;64.77;101249.90;105035;1262;74670;-62
2023/01/13 05:03:00;;;;;;;15.30;5.30;;;;;;;-1.60;64.85;101249.64;105099;1258;72133;-63
2023/01/13 05:05:27;;;;;;;13.30;6.10;;;;;;;-1.65;65.05;101249.55;105049;1258;74706;-63
2023/01/13 05:07:54;;;;;;;12.10;6.30;;;;;;;-1.68;65.23;101250.29;105089;1258;62263;-65
2023/01/13 05:10:21;;;;;;;14.20;6.40;;;;;;;-1.71;65.27;101251.52;104988;1257;62208;-62
2023/01/13 05:18:21;;;;;;;15.60;4.30;;;;;;;-1.65;65.51;101253.69;104869;1261;73755;-62
2023/01/13 05:20:48;;;;;;;11.90;5.50;;;;;;;-1.56;65.47;101257.66;105093;1259;63594;-62
2023/01/13 05:26:01;;;;;;;15.30;4.30;;;;;;;-1.34;65.29;101262.31;105143;1258;73852;-63
2023/01/13 05:28:32;;;;;;;12.10;4.80;;;;;;;-1.22;65.25;101259.20;104960;1260;70209;-62
2023/01/13 05:30:59;;;;;;;11.10;5.00;;;;;;;-1.15;65.15;101261.30;104890;1263;72476;-63
2023/01/13 05:33:26;;;;;;;12.20;5.80;;;;;;;-1.12;65.07;101260.38;105444;1260;60624;-61
2023/01/13 05:35:53;;;;;;;16.80;6.20;;;;;;;-1.09;65.03;101260.33;105209;1259;62121;-62
2023/01/13 05:38:20;;;;;;;15.90;6.20;;;;;;;-1.07;64.95;101257.38;104886;1264;74309;-62
2023/01/13 05:43:33;;;;;;;18.10;5.30;;;;;;;-1.12;64.78;101262.98;104970;1261;73752;-61
2023/01/13 05:46:02;;;;;;;14.00;4.80;;;;;;;-1.17;64.72;101257.73;105106;1257;61424;-62
2023/01/13 05:48:31;;;;;;;12.60;5.50;;;;;;;-1.22;64.76;101257.63;106465;1261;61392;-62
2023/01/13 05:50:58;;;;;;;17.80;5.30;;;;;;;-1.25;64.90;101260.79;106298;1263;75020;-62
2023/01/13 05:53:25;;;;;;;12.10;4.60;;;;;;;-1.28;64.96;101261.16;105056;1259;71554;-63
2023/01/13 05:55:52;;;;;;;14.40;5.50;;;;;;;-1.32;64.85;101265.20;105304;1258;74186;-61
2023/01/13 05:58:21;;;;;;;14.90;6.70;;;;;;;-1.38;64.89;101265.30;105268;1262;62486;-61
2023/01/13 10:02:16;;;;;;;11.50;5.00;;;;;;;-0.41;62.82;101236.63;102543;1291;601539;-66
2023/01/13 10:04:43;;;;;;;10.90;5.00;;;;;;;-0.30;62.61;101232.80;105131;1267;61998;-66
2023/01/13 10:07:12;;;;;;;10.20;4.50;;;;;;;-0.29;62.66;101235.70;108125;1266;61405;-67
2023/01/13 10:09:49;;;;;;;14.90;6.80;;;;;;;-0.28;62.46;101232.74;108262;1266;74602;-67
2023/01/13 10:15:10;;;;;;;12.50;5.70;;;;;;;-0.29;62.59;101227.41;105928;1270;156550;-67
2023/01/13 10:18:04;;;;;;;14.40;5.70;;;;;;;-0.27;62.75;101221.85;104887;1267;60862;-67
2023/01/13 10:21:08;;;;;;;19.00;6.60;;;;;;;-0.22;62.70;101218.98;104743;1266;62448;-67
2023/01/13 10:24:21;;;;;;;12.50;4.70;;;;;;;-0.11;62.36;101215.13;104063;1266;64375;-66
2023/01/13 10:26:56;;;;;;;11.80;5.00;;;;;;;0.04;62.24;101218.23;104216;1273;62715;-66
2023/01/13 10:29:24;;;;;;;;;;;;;;;0.18;62.20;101213.44;104018;1274;73514;-67
2023/01/13 10:31:52;;;;;;;11.70;5.80;;;;;;;0.30;61.99;101209.70;104418;1265;62289;-68
2023/01/13 10:34:20;;;;;;;14.50;5.40;;;;;;;0.41;61.89;101207.53;104779;1264;62873;-67
2023/01/13 10:36:59;;;;;;;13.70;5.60;;;;;;;0.50;61.75;101205.58;104900;1264;75138;-67
2023/01/13 10:39:26;;;;;;;20.30;7.20;;;;;;;0.55;61.48;101204.09;104787;1264;72375;-67
2023/01/13 10:42:01;;;;;;;10.80;4.70;;;;;;;0.59;61.10;101206.23;104797;1264;74823;-67
2023/01/13 10:44:28;;;;;;;19.20;6.20;;;;;;;0.58;60.98;101202.96;104686;1264;61404;-66
2023/01/13 10:46:57;;;;;;;8.40;4.00;;;;;;;0.56;60.93;101204.40;104529;1265;62456;-69
2023/01/13 10:49:32;;;;;;;8.90;3.90;;;;;;;0.54;61.05;101206.69;104679;1266;75395;-67
2023/01/13 10:52:00;;;;;;;9.20;4.60;;;;;;;0.54;60.74;101206.52;104867;1265;72423;-68
2023/01/13 10:54:28;;;;;;;11.10;4.60;;;;;;;0.50;60.57;101205.57;104779;1267;73298;-68
2023/01/13 10:57:20;;;;;;;9.20;4.30;;;;;;;0.48;60.76;101207.89;104797;1267;60415;-68
2023/01/13 10:59:47;;;;;;;10.80;4.70;;;;;;;0.46;60.85;101208.44;104678;1266;62509;-66
2023/01/13 11:02:16;;;;;;;9.70;4.40;;;;;;;0.42;60.89;101201.13;104599;1269;75154;-68
2023/01/13 11:04:54;;;;;;;12.60;4.60;;;;;;;0.36;60.92;101198.68;104870;1264;72479;-67
2023/01/13 11:07:36;;;;;;;15.10;5.40;;;;;;;0.32;61.18;101192.55;104761;1266;74741;-67
2023/01/13 11:10:28;;;;;;;11.50;5.60;;;;;;;0.30;61.00;101197.45;104576;1266;61552;-67
2023/01/13 11:13:07;;;;;;;11.90;4.70;;;;;;;0.26;61.02;101199.45;104541;1266;62486;-68
2023/01/13 11:16:04;;;;;;;12.70;5.60;;;;;;;0.23;61.24;101196.94;104584;1269;74963;-67
2023/01/13 11:19:10;;;;;;;13.70;5.90;;;;;;;0.19;61.32;101198.39;104722;1269;62523;-67
2023/01/13 11:21:40;;;;;;;9.50;4.40;;;;;;;0.16;61.49;101197.09;104680;1266;65272;-68
2023/01/13 11:24:18;;;;;;;17.00;5.90;;;;;;;0.13;61.44;101197.66;104921;1262;61911;-68
2023/01/13 11:27:22;;;;;;;13.90;5.40;;;;;;;0.10;61.52;101195.34;104806;1262;62466;-69
2023/01/13 11:30:20;;;;;;;12.30;5.80;;;;;;;0.12;61.62;101198.03;104932;1263;66682;-67
2023/01/13 11:33:09;;;;;;;12.20;4.50;;;;;;;0.22;61.27;101200.39;104971;1262;63825;-67
2023/01/13 11:35:50;;;;;;;12.40;3.00;;;;;;;0.34;60.96;101197.17;104704;1262;65560;-67
2023/01/13 11:38:27;;;;;;;10.40;4.60;;;;;;;0.43;60.80;101189.54;104930;1262;61206;-67
2023/01/13 11:40:57;;;;;;;10.70;5.30;;;;;;;0.47;60.91;101189.44;104773;1267;61329;-68
2023/01/13 11:43:31;;;;;;;9.90;4.80;;;;;;;0.49;60.82;101189.55;104794;1262;74136;-67
2023/01/13 11:45:59;;;;;;;9.20;4.30;;;;;;;0.48;60.76;101187.85;104717;1265;71111;-67
2023/01/13 11:48:28;;;;;;;10.70;4.50;;;;;;;0.44;60.87;101187.44;104847;1264;74243;-67
2023/01/13 11:51:13;;;;;;;11.90;4.80;;;;;;;0.41;61.00;101186.98;104831;1266;60873;-67
2023/01/13 11:54:03;;;;;;;12.00;5.10;;;;;;;0.37;61.09;101189.34;104663;1267;62451;-68
2023/01/13 11:56:42;;;;;;;9.60;4.30;;;;;;;0.33;61.10;101187.36;104844;1262;66625;-68
2023/01/13 16:01:52;;;;;;;16.70;8.50;;;;;;;-0.24;63.72;101186.27;102116;1293;601126;-67
2023/01/13 16:04:19;;;;;;;13.50;5.90;;;;;;;-0.17;63.47;101183.00;104548;1272;59273;-68
2023/01/13 16:06:46;;;;;;;12.30;6.10;;;;;;;-0.20;63.57;101188.77;104525;1267;61555;-67
2023/01/13 16:09:13;;;;;;;16.30;7.50;;;;;;;-0.25;63.77;101189.74;104684;1266;73446;-67
2023/01/13 16:11:41;;;;;;;13.10;5.40;;;;;;;-0.26;63.79;101190.44;104623;1266;72158;-66
2023/01/13 16:14:08;;;;;;;14.70;5.40;;;;;;;-0.22;63.83;101191.91;104728;1269;74764;-68
2023/01/13 16:16:34;;;;;;;9.50;3.90;;;;;;;-0.14;63.85;101190.02;104823;1264;59949;-67
2023/01/13 16:19:02;;;;;;;15.60;6.30;;;;;;;-0.05;63.84;101189.80;105001;1263;61198;-69
2023/01/13 16:21:29;;;;;;;10.70;4.50;;;;;;;0.06;63.88;101194.73;104938;1264;73206;-71
2023/01/13 16:23:56;;;;;;;10.90;4.40;;;;;;;0.11;63.70;101190.64;104942;1264;72221;-67
2023/01/13 16:26:24;;;;;;;16.30;6.50;;;;;;;0.12;63.70;101185.61;105045;1259;74784;-69
2023/01/13 16:28:52;;;;;;;14.60;5.70;;;;;;;0.12;63.78;101184.59;105200;1266;60636;-68
2023/01/13 16:31:45;;;;;;;11.70;5.50;;;;;;;0.11;63.89;101183.05;104890;1264;62445;-68
2023/01/13 16:34:12;;;;;;;19.30;6.20;;;;;;;0.12;63.92;101180.95;105259;1263;65165;-67
2023/01/13 16:36:39;;;;;;;16.70;6.20;;;;;;;0.11;63.87;101182.02;104961;1265;70989;-67
2023/01/13 16:39:17;;;;;;;19.40;7.40;;;;;;;0.07;63.97;101177.30;105077;1263;74568;-67
2023/01/13 16:41:43;;;;;;;22.10;8.80;;;;;;;0.05;64.06;101177.86;104879;1266;60633;-68
2023/01/13 16:44:10;;;;;;;15.50;6.90;;;;;;;0.01;64.08;101182.62;105050;1264;62525;-66
2023/01/13 16:46:37;;;;;;;14.70;5.70;;;;;;;-0.04;64.16;101185.80;104932;1264;75227;-66
2023/01/13 16:49:05;;;;;;;15.00;7.00;;;;;;;-0.07;64.29;101181.92;105027;1264;72021;-67
2023/01/13 16:51:32;;;;;;;14.60;7.40;;;;;;;-0.11;64.43;101177.02;104955;1264;73697;-68
2023/01/13 16:53:59;;;;;;;10.90;5.40;;;;;;;-0.15;64.50;101175.73;104914;1271;60537;-68
2023/01/13 16:56:30;;;;;;;13.80;5.80;;;;;;;-0.19;64.49;101173.20;104956;1265;61392;-68
2023/01/13 16:59:00;;;;;;;16.70;7.30;;;;;;;-0.24;64.55;101172.66;104960;1264;74010;-68
2023/01/13 17:01:28;;;;;;;15.60;6.10;;;;;;;-0.28;64.71;101172.93;104956;1265;72303;-67
2023/01/13 17:03:56;;;;;;;15.20;7.40;;;;;;;-0.38;65.15;101180.02;105050;1273;73573;-68
2023/01/13 17:06:28;;;;;;;10.70;6.30;;;;;;;-0.25;65.02;101177.67;104990;1264;63541;-66
2023/01/13 17:09:00;;;;;;;16.40;6.70;;;;;;;-0.14;64.98;101178.29;104966;1263;60965;-67
2023/01/13 17:11:27;;;;;;;12.70;6.20;;;;;;;0.01;64.77;101182.77;104959;1258;74976;-68
2023/01/13 17:13:54;;;;;;;15.60;6.80;;;;;;;0.10;64.76;101184.80;104918;1263;72370;-68
2023/01/13 17:16:23;;;;;;;13.20;6.30;;;;;;;0.20;64.55;101183.02;104866;1264;73585;-68
2023/01/13 17:18:50;;;;;;;16.10;6.90;;;;;;;0.24;64.47;101184.31;105168;1263;61355;-67
2023/01/13 17:21:17;;;;;;;14.80;5.80;;;;;;;0.26;64.45;101190.64;104877;1266;62370;-68
2023/01/13 17:23:44;;;;;;;15.60;6.30;;;;;;;0.26;64.37;101189.43;105123;1263;75120;-66
2023/01/13 17:26:30;;;;;;;13.80;6.80;;;;;;;0.22;64.15;101187.13;105051;1264;71471;-69
2023/01/13 17:29:01;;;;;;;13.90;7.30;;;;;;;0.17;64.16;101185.52;105076;1263;65131;-68
2023/01/13 17:31:28;;;;;;;15.10;8.00;;;;;;;0.12;64.17;101185.77;104933;1260;61405;-68
2023/01/13 17:33:55;;;;;;;18.10;8.40;;;;;;;0.08;64.22;101186.06;105237;1263;62133;-68
2023/01/13 17:36:22;;;;;;;16.70;7.50;;;;;;;0.05;64.26;101186.84;104877;1264;74074;-67
2023/01/13 17:38:51;;;;;;;17.30;7.00;;;;;;;0.03;64.32;101196.38;104976;1273;71222;-67
2023/01/13 17:41:20;;;;;;;17.60;6.60;;;;;;;0.01;64.45;101195.02;105066;1264;73751;-68
2023/01/13 17:43:47;;;;;;;14.20;6.00;;;;;;;-0.01;64.37;101196.80;105014;1259;60692;-68
2023/01/13 17:46:18;;;;;;;15.50;7.30;;;;;;;-0.05;64.26;101196.70;104913;1261;61318;-67
2023/01/13 17:48:45;;;;;;;15.80;6.80;;;;;;;-0.12;64.22;101190.66;104990;1264;73980;-68
2023/01/13 17:51:14;;;;;;;12.80;7.10;;;;;;;-0.20;64.39;101187.91;104920;1264;71186;-68
2023/01/13 17:53:41;;;;;;;30.40;10.90;;;;;;;-0.25;64.52;101190.09;104957;1263;74676;-66
2023/01/13 18:27:55;;;;;;;18.10;6.40;;;;;;;0.07;62.98;101165.73;106636;1259;59259;-67
2023/01/13 18:30:22;;;;;;;17.80;6.80;;;;;;;0.07;62.90;101165.90;108000;1244;73101;-77
2023/01/13 18:32:51;;;;;;;18.80;6.40;;;;;;;0.11;62.69;101161.66;107802;1247;69975;-74
2023/01/13 18:35:19;;;;;;;20.70;8.20;;;;;;;0.14;62.64;101159.34;107827;1242;73459;-75
2023/01/13 18:37:45;;;;;;;12.80;6.70;;;;;;;0.16;62.62;101148.77;107856;1244;59777;-74
2023/01/13 18:40:13;;;;;;;17.00;7.80;;;;;;;0.16;62.54;101153.41;107835;1244;61229;-74
2023/01/13 18:42:54;;;;;;;12.80;6.80;;;;;;;0.15;62.60;101151.20;107895;1243;73566;-74
2023/01/13 18:45:29;;;;;;;17.60;8.50;;;;;;;0.11;62.60;101151.32;107900;1241;71119;-72
2023/01/13 18:47:58;;;;;;;18.50;8.10;;;;;;;0.06;62.70;101158.68;107899;1241;73423;-73
2023/01/13 18:50:25;;;;;;;14.20;6.70;;;;;;;0.04;62.74;101159.09;107868;1241;60448;-74
2023/01/13 18:52:53;;;;;;;13.40;6.30;;;;;;;0.01;62.82;101157.25;107897;1241;60935;-75
2023/01/13 18:55:21;;;;;;;14.90;8.00;;;;;;;-0.03;62.82;101161.30;107858;1244;72797;-75
2023/01/13 18:57:49;;;;;;;17.60;7.70;;;;;;;-0.10;62.82;101160.27;107866;1242;70912;-73
2023/01/13 19:00:18;;;;;;;14.30;6.90;;;;;;;-0.15;62.88;101161.59;107774;1241;73733;-74
2023/01/13 19:02:49;;;;;;;17.10;7.00;;;;;;;-0.20;63.07;101164.47;107945;1243;60207;-74
2023/01/13 19:05:17;;;;;;;20.40;7.20;;;;;;;-0.23;63.03;101170.55;108454;1241;59998;-73
2023/01/13 19:07:49;;;;;;;16.60;6.50;;;;;;;-0.28;63.14;101170.66;107882;1244;73940;-74
2023/01/13 19:10:16;;;;;;;16.90;7.70;;;;;;;-0.32;63.09;101174.38;108515;1239;70051;-75
2023/01/13 19:12:43;;;;;;;16.50;7.00;;;;;;;-0.36;63.16;101171.02;108334;1235;72859;-74
2023/01/13 19:15:10;;;;;;;16.20;6.00;;;;;;;-0.39;63.22;101170.92;108560;1234;59804;-75
2023/01/13 19:17:37;;;;;;;15.20;6.20;;;;;;;-0.38;63.12;101166.41;108388;1235;60166;-74
2023/01/13 19:20:05;;;;;;;13.40;6.80;;;;;;;-0.31;63.08;101167.45;109087;1234;73597;-75
2023/01/13 19:22:33;;;;;;;14.50;5.00;;;;;;;-0.25;63.02;101163.88;109020;1230;70936;-74
2023/01/13 19:25:01;;;;;;;14.40;5.50;;;;;;;-0.16;63.01;101167.30;108974;1231;72285;-75
2023/01/13 19:27:28;;;;;;;22.00;7.80;;;;;;;-0.07;62.96;101164.00;109087;1231;59610;-73
2023/01/13 19:30:01;;;;;;;19.00;7.70;;;;;;;0.01;62.98;101165.35;108970;1232;61400;-75
2023/01/13 19:32:31;;;;;;;15.60;7.00;;;;;;;0.04;62.86;101163.91;108892;1235;73853;-73
2023/01/13 19:34:58;;;;;;;14.50;7.80;;;;;;;0.05;62.82;101162.50;108910;1232;70251;-74
2023/01/13 19:37:29;;;;;;;18.70;8.20;;;;;;;0.05;62.66;101159.05;108955;1231;73492;-73
2023/01/13 19:39:57;;;;;;;16.00;7.10;;;;;;;0.04;62.55;101159.09;108900;1231;60583;-74
2023/01/13 19:45:25;;;;;;;19.60;7.70;;;;;;;-0.02;62.62;101162.31;108976;1230;65227;-74
2023/01/13 19:47:56;;;;;;;16.70;7.90;;;;;;;-0.07;62.64;101165.73;108996;1231;62150;-76
2023/01/13 19:50:23;;;;;;;26.20;10.30;;;;;;;-0.13;62.67;101167.75;108820;1231;73539;-75
2023/01/13 19:52:50;;;;;;;14.70;6.60;;;;;;;-0.18;62.73;101167.85;108911;1235;60061;-73
2023/01/13 19:55:18;;;;;;;17.50;7.20;;;;;;;-0.22;62.71;101169.33;108951;1230;60971;-73
2023/01/13 19:57:45;;;;;;;23.10;8.00;;;;;;;-0.27;62.77;101168.39;108954;1231;74345;-72
2023/01/13 20:00:17;;;;;;;15.70;7.20;;;;;;;-0.30;62.84;101168.13;108967;1231;71071;-73
2023/01/13 20:02:47;;;;;;;14.90;7.00;;;;;;;-0.32;63.05;101169.56;109090;1231;73549;-74
2023/01/13 20:05:19;;;;;;;17.30;7.60;;;;;;;-0.34;63.12;101164.61;108954;1236;60047;-73
2023/01/13 20:07:48;;;;;;;16.90;8.30;;;;;;;-0.37;63.05;101161.20;108975;1232;59621;-75
2023/01/13 20:10:17;;;;;;;19.80;8.30;;;;;;;-0.39;63.31;101160.73;109216;1234;72942;-73
2023/01/13 20:12:44;;;;;;;16.00;7.90;;;;;;;-0.34;63.03;101160.96;109041;1231;71281;-74
2023/01/13 20:15:11;;;;;;;14.30;6.20;;;;;;;-0.25;63.08;101158.02;108868;1231;73527;-74
2023/01/13 20:17:40;;;;;;;17.30;7.30;;;;;;;-0.15;62.97;101161.77;108992;1231;61964;-73
2023/01/13 20:20:09;;;;;;;15.10;6.00;;;;;;;-0.07;62.77;101160.02;109090;1231;60962;-72
2023/01/13 20:22:38;;;;;;;11.70;6.40;;;;;;;-0.04;62.70;101163.39;109042;1234;73947;-73
2023/01/13 20:25:07;;;;;;;16.10;7.00;;;;;;;-0.01;62.71;101160.06;108919;1231;71193;-74
2023/01/13 20:27:35;;;;;;;17.10;6.20;;;;;;;-0.01;62.64;101159.89;109014;1231;73485;-72
2023/01/13 20:30:04;;;;;;;17.80;8.10;;;;;;;-0.03;62.52;101158.88;108985;1230;60308;-73
2023/01/13 20:32:31;;;;;;;16.30;6.90;;;;;;;-0.07;62.49;101156.58;109095;1231;61015;-73
2023/01/13 20:34:58;;;;;;;18.10;7.80;;;;;;;-0.14;62.39;101157.94;108962;1235;72536;-73
2023/01/13 20:37:26;;;;;;;17.40;8.60;;;;;;;-0.21;62.67;101158.42;109001;1232;70013;-72
2023/01/13 20:39:54;;;;;;;15.00;7.50;;;;;;;-0.24;62.67;101151.42;108940;1234;73976;-73
2023/01/13 20:45:07;;;;;;;13.00;6.50;;;;;;;-0.31;63.02;101151.59;108998;1234;59530;-73
2023/01/13 20:47:36;;;;;;;15.80;7.00;;;;;;;-0.32;63.08;101154.90;108850;1235;73148;-73
2023/01/13 20:50:03;;;;;;;14.50;7.60;;;;;;;-0.33;63.15;101157.00;109019;1229;71032;-73
2023/01/13 20:52:31;;;;;;;18.40;7.50;;;;;;;-0.34;63.18;101158.05;108965;1230;72617;-73
2023/01/13 20:54:58;;;;;;;14.20;7.40;;;;;;;-0.38;63.34;101161.06;108896;1231;60134;-73
2023/01/13 20:57:25;;;;;;;22.80;8.90;;;;;;;-0.40;63.31;101162.67;108973;1231;61132;-73
2023/01/13 20:59:52;;;;;;;17.10;8.10;;;;;;;-0.41;63.35;101171.30;108981;1236;72736;-73
2023/01/13 21:02:21;;;;;;;17.30;6.60;;;;;;;-0.35;63.42;101167.55;108953;1230;71200;-73
2023/01/13 21:04:48;;;;;;;15.00;6.50;;;;;;;-0.24;63.20;101172.82;109016;1231;73392;-72
2023/01/13 21:07:16;;;;;;;15.60;7.00;;;;;;;-0.14;63.10;101180.36;108949;1231;62144;-72
2023/01/13 21:09:43;;;;;;;17.60;7.10;;;;;;;-0.05;62.86;101179.64;109005;1232;60209;-74
2023/01/13 21:15:16;;;;;;;18.60;7.10;;;;;;;0.05;62.59;101186.66;108988;1234;61344;-72
2023/01/13 21:20:31;;;;;;;13.30;6.40;;;;;;;0.01;62.55;101183.98;109024;1230;59822;-73
2023/01/13 21:23:00;;;;;;;17.40;7.30;;;;;;;-0.02;62.67;101182.14;109113;1230;61187;-73
2023/01/13 21:25:27;;;;;;;22.50;8.80;;;;;;;-0.05;62.55;101178.95;109065;1235;74077;-74
2023/01/13 21:27:59;;;;;;;19.30;8.70;;;;;;;-0.09;62.74;101181.62;109063;1231;71130;-72
2023/01/13 21:30:27;;;;;;;13.60;6.50;;;;;;;-0.13;62.70;101179.48;109042;1231;73403;-72
2023/01/13 21:32:54;;;;;;;16.10;7.30;;;;;;;-0.18;62.80;101179.93;108815;1231;60350;-73
2023/01/13 21:35:20;;;;;;;15.20;7.90;;;;;;;-0.23;62.71;101177.98;108986;1234;60213;-74
2023/01/13 21:37:49;;;;;;;19.40;7.50;;;;;;;-0.28;62.95;101176.70;109046;1234;74331;-73
2023/01/13 21:40:17;;;;;;;12.20;5.30;;;;;;;-0.30;63.12;101170.38;108919;1231;71011;-73
2023/01/13 21:48:18;;;;;;;17.00;7.10;;;;;;;-0.39;63.52;101174.88;108915;1235;59561;-72
2023/01/13 21:50:45;;;;;;;15.80;7.20;;;;;;;-0.41;63.56;101175.09;109053;1234;73617;-72
2023/01/13 21:53:14;;;;;;;22.70;10.30;;;;;;;-0.43;63.58;101168.92;109050;1231;70815;-74
2023/01/13 21:55:42;;;;;;;12.80;6.50;;;;;;;-0.39;63.54;101162.98;109005;1233;73516;-74
2023/01/13 21:58:13;;;;;;;16.50;7.30;;;;;;;-0.30;63.58;101151.06;108871;1235;61025;-73
2023/01/13 22:15:33;;;;;;;17.20;8.50;;;;;;;0.63;61.96;101163.14;106438;1260;59572;-63
2023/01/13 22:18:00;;;;;;;20.10;9.70;;;;;;;0.53;61.91;101163.02;107631;1248;60172;-69